sensor_id;sensor_type;location;lat;lon;timestamp;pressure;altitude;pressure_sealevel;temperature;humidity
26436;BME280;15351;52.408;16.826;2023-07-22T00:02:30;100241.38;;;19.46;64.90
26436;BME280;15351;52.408;16.826;2023-07-22T00:05:04;100243.23;;;19.46;65.15
26436;BME280;15351;52.408;16.826;2023-07-22T00:07:34;100240.11;;;19.46;65.00
26436;BME280;15351;52.408;16.826;2023-07-22T00:10:12;100238.60;;;19.44;65.00
26436;BME280;15351;52.408;16.826;2023-07-22T00:12:40;100239.55;;;19.43;65.03
26436;BME280;15351;52.408;16.826;2023-07-22T00:15:07;100237.90;;;19.40;64.88
26436;BME280;15351;52.408;16.826;2023-07-22T00:17:34;100237.64;;;19.37;64.93
26436;BME280;15351;52.408;16.826;2023-07-22T00:20:01;100237.48;;;19.33;64.90
26436;BME280;15351;52.408;16.826;2023-07-22T00:22:31;100241.11;;;19.27;64.66
26436;BME280;15351;52.408;16.826;2023-07-22T00:24:58;100247.38;;;19.23;64.94
26436;BME280;15351;52.408;16.826;2023-07-22T00:27:27;100246.01;;;19.18;65.35
26436;BME280;15351;52.408;16.826;2023-07-22T00:29:54;100240.23;;;19.12;65.96
26436;BME280;15351;52.408;16.826;2023-07-22T00:32:20;100238.23;;;19.10;66.05
26436;BME280;15351;52.408;16.826;2023-07-22T00:34:47;100239.33;;;19.04;65.86
26436;BME280;15351;52.408;16.826;2023-07-22T00:37:13;100244.52;;;19.01;65.96
26436;BME280;15351;52.408;16.826;2023-07-22T00:39:39;100245.00;;;18.99;66.08
26436;BME280;15351;52.408;16.826;2023-07-22T00:42:06;100247.46;;;18.99;66.36
26436;BME280;15351;52.408;16.826;2023-07-22T00:44:34;100245.00;;;18.97;66.41
26436;BME280;15351;52.408;16.826;2023-07-22T00:47:00;100246.09;;;18.95;66.67
26436;BME280;15351;52.408;16.826;2023-07-22T00:49:29;100246.38;;;18.92;66.61
26436;BME280;15351;52.408;16.826;2023-07-22T00:51:59;100251.84;;;18.83;66.65
26436;BME280;15351;52.408;16.826;2023-07-22T00:54:27;100248.77;;;18.77;66.90
26436;BME280;15351;52.408;16.826;2023-07-22T00:56:54;100246.08;;;18.75;67.15
26436;BME280;15351;52.408;16.826;2023-07-22T00:59:21;100252.11;;;18.74;67.02
26436;BME280;15351;52.408;16.826;2023-07-22T01:01:48;100255.34;;;18.57;67.19
26436;BME280;15351;52.408;16.826;2023-07-22T01:04:15;100247.05;;;18.49;67.79
26436;BME280;15351;52.408;16.826;2023-07-22T01:06:46;100249.03;;;18.54;68.00
26436;BME280;15351;52.408;16.826;2023-07-22T01:09:12;100249.16;;;18.57;67.97
26436;BME280;15351;52.408;16.826;2023-07-22T01:11:41;100252.89;;;18.57;67.80
26436;BME280;15351;52.408;16.826;2023-07-22T01:14:09;100252.30;;;18.60;68.04
26436;BME280;15351;52.408;16.826;2023-07-22T01:16:36;100250.90;;;18.62;67.86
26436;BME280;15351;52.408;16.826;2023-07-22T01:19:03;100248.21;;;18.61;68.03
26436;BME280;15351;52.408;16.826;2023-07-22T01:21:34;100254.27;;;18.61;67.68
26436;BME280;15351;52.408;16.826;2023-07-22T01:24:01;100251.17;;;18.57;67.92
26436;BME280;15351;52.408;16.826;2023-07-22T01:26:28;100252.08;;;18.55;67.88
26436;BME280;15351;52.408;16.826;2023-07-22T01:29:06;100254.27;;;18.54;67.89
26436;BME280;15351;52.408;16.826;2023-07-22T01:31:35;100256.70;;;18.53;67.80
26436;BME280;15351;52.408;16.826;2023-07-22T01:34:02;100258.11;;;18.52;67.96
26436;BME280;15351;52.408;16.826;2023-07-22T01:36:29;100260.88;;;18.49;67.95
26436;BME280;15351;52.408;16.826;2023-07-22T01:38:56;100261.23;;;18.47;67.86
26436;BME280;15351;52.408;16.826;2023-07-22T01:41:23;100254.33;;;18.43;67.74
26436;BME280;15351;52.408;16.826;2023-07-22T01:43:50;100265.02;;;18.39;67.76
26436;BME280;15351;52.408;16.826;2023-07-22T01:46:17;100261.64;;;18.35;67.94
26436;BME280;15351;52.408;16.826;2023-07-22T01:48:43;100263.23;;;18.33;68.10
26436;BME280;15351;52.408;16.826;2023-07-22T01:51:09;100266.60;;;18.35;68.17
26436;BME280;15351;52.408;16.826;2023-07-22T01:53:35;100266.24;;;18.34;68.18
26436;BME280;15351;52.408;16.826;2023-07-22T01:56:01;100262.39;;;18.33;68.19
26436;BME280;15351;52.408;16.826;2023-07-22T01:58:28;100265.62;;;18.33;68.45
26436;BME280;15351;52.408;16.826;2023-07-22T02:00:54;100261.58;;;18.31;68.45
26436;BME280;15351;52.408;16.826;2023-07-22T02:03:21;100262.24;;;18.30;68.19
26436;BME280;15351;52.408;16.826;2023-07-22T02:05:49;100261.84;;;18.26;68.44
26436;BME280;15351;52.408;16.826;2023-07-22T02:08:16;100262.84;;;18.23;68.25
26436;BME280;15351;52.408;16.826;2023-07-22T02:10:42;100266.09;;;18.13;68.53
26436;BME280;15351;52.408;16.826;2023-07-22T02:13:08;100262.39;;;18.07;68.68
26436;BME280;15351;52.408;16.826;2023-07-22T02:15:35;100265.40;;;18.05;69.03
26436;BME280;15351;52.408;16.826;2023-07-22T02:18:01;100263.40;;;17.94;68.81
26436;BME280;15351;52.408;16.826;2023-07-22T02:20:27;100260.88;;;17.85;68.99
26436;BME280;15351;52.408;16.826;2023-07-22T02:22:55;100262.63;;;17.78;69.49
26436;BME280;15351;52.408;16.826;2023-07-22T02:25:21;100266.45;;;17.69;69.58
26436;BME280;15351;52.408;16.826;2023-07-22T02:27:48;100261.90;;;17.59;69.76
26436;BME280;15351;52.408;16.826;2023-07-22T02:30:14;100262.91;;;17.58;70.11
26436;BME280;15351;52.408;16.826;2023-07-22T02:32:41;100256.94;;;17.59;69.97
26436;BME280;15351;52.408;16.826;2023-07-22T02:35:08;100263.32;;;17.59;70.34
26436;BME280;15351;52.408;16.826;2023-07-22T02:37:37;100268.78;;;17.59;70.10
26436;BME280;15351;52.408;16.826;2023-07-22T02:40:04;100269.86;;;17.59;70.21
26436;BME280;15351;52.408;16.826;2023-07-22T02:42:39;100274.50;;;17.57;70.04
26436;BME280;15351;52.408;16.826;2023-07-22T02:45:06;100274.64;;;17.56;70.34
26436;BME280;15351;52.408;16.826;2023-07-22T02:47:36;100269.14;;;17.53;70.39
26436;BME280;15351;52.408;16.826;2023-07-22T02:50:03;100267.24;;;17.53;70.40
26436;BME280;15351;52.408;16.826;2023-07-22T02:52:33;100271.71;;;17.55;70.10
26436;BME280;15351;52.408;16.826;2023-07-22T02:55:13;100273.96;;;17.53;70.21
26436;BME280;15351;52.408;16.826;2023-07-22T02:57:40;100268.23;;;17.55;70.40
26436;BME280;15351;52.408;16.826;2023-07-22T03:00:07;100269.11;;;17.55;69.94
26436;BME280;15351;52.408;16.826;2023-07-22T03:02:35;100270.82;;;17.56;69.89
26436;BME280;15351;52.408;16.826;2023-07-22T03:05:04;100272.89;;;17.56;70.17
26436;BME280;15351;52.408;16.826;2023-07-22T03:07:34;100273.08;;;17.57;69.88
26436;BME280;15351;52.408;16.826;2023-07-22T03:10:01;100278.88;;;17.57;69.96
26436;BME280;15351;52.408;16.826;2023-07-22T03:12:27;100281.29;;;17.54;69.63
26436;BME280;15351;52.408;16.826;2023-07-22T03:14:53;100289.02;;;17.51;69.56
26436;BME280;15351;52.408;16.826;2023-07-22T03:17:19;100285.77;;;17.48;69.64
26436;BME280;15351;52.408;16.826;2023-07-22T03:19:46;100286.44;;;17.46;69.84
26436;BME280;15351;52.408;16.826;2023-07-22T03:22:14;100291.19;;;17.45;70.10
26436;BME280;15351;52.408;16.826;2023-07-22T03:24:46;100291.56;;;17.44;70.28
26436;BME280;15351;52.408;16.826;2023-07-22T03:27:14;100289.23;;;17.43;70.13
26436;BME280;15351;52.408;16.826;2023-07-22T03:29:43;100290.54;;;17.41;70.32
26436;BME280;15351;52.408;16.826;2023-07-22T03:32:10;100296.75;;;17.43;70.22
26436;BME280;15351;52.408;16.826;2023-07-22T03:34:36;100301.30;;;17.45;70.29
26436;BME280;15351;52.408;16.826;2023-07-22T03:37:03;100298.13;;;17.46;70.25
26436;BME280;15351;52.408;16.826;2023-07-22T03:39:29;100295.04;;;17.45;70.22
26436;BME280;15351;52.408;16.826;2023-07-22T03:41:56;100295.46;;;17.45;70.32
26436;BME280;15351;52.408;16.826;2023-07-22T03:44:22;100292.27;;;17.39;70.44
26436;BME280;15351;52.408;16.826;2023-07-22T03:46:49;100293.61;;;17.36;70.98
26436;BME280;15351;52.408;16.826;2023-07-22T03:49:15;100298.20;;;17.31;70.88
26436;BME280;15351;52.408;16.826;2023-07-22T03:51:42;100295.62;;;17.25;71.01
26436;BME280;15351;52.408;16.826;2023-07-22T03:54:08;100297.85;;;17.17;71.32
26436;BME280;15351;52.408;16.826;2023-07-22T03:56:34;100295.82;;;17.10;71.49
26436;BME280;15351;52.408;16.826;2023-07-22T03:59:00;100304.02;;;17.08;71.88
26436;BME280;15351;52.408;16.826;2023-07-22T04:01:27;100301.73;;;17.02;72.23
26436;BME280;15351;52.408;16.826;2023-07-22T04:03:53;100304.92;;;17.00;72.42
26436;BME280;15351;52.408;16.826;2023-07-22T04:06:20;100302.56;;;17.00;73.01
26436;BME280;15351;52.408;16.826;2023-07-22T04:08:48;100297.86;;;17.02;73.23
26436;BME280;15351;52.408;16.826;2023-07-22T04:11:16;100296.83;;;17.00;73.26
26436;BME280;15351;52.408;16.826;2023-07-22T04:13:43;100299.67;;;16.97;73.46
26436;BME280;15351;52.408;16.826;2023-07-22T04:16:09;100296.34;;;16.99;73.63
26436;BME280;15351;52.408;16.826;2023-07-22T04:18:35;100293.25;;;17.03;74.16
26436;BME280;15351;52.408;16.826;2023-07-22T04:21:02;100296.14;;;17.07;74.39
26436;BME280;15351;52.408;16.826;2023-07-22T04:23:28;100299.39;;;17.09;74.44
26436;BME280;15351;52.408;16.826;2023-07-22T04:25:54;100299.58;;;17.11;74.47
26436;BME280;15351;52.408;16.826;2023-07-22T04:28:21;100298.51;;;17.14;74.71
26436;BME280;15351;52.408;16.826;2023-07-22T04:30:57;100299.24;;;17.16;74.93
26436;BME280;15351;52.408;16.826;2023-07-22T04:33:25;100305.25;;;17.16;74.91
26436;BME280;15351;52.408;16.826;2023-07-22T04:35:55;100306.81;;;17.14;74.76
26436;BME280;15351;52.408;16.826;2023-07-22T04:38:22;100310.05;;;17.13;75.01
26436;BME280;15351;52.408;16.826;2023-07-22T04:40:48;100308.06;;;17.20;75.24
26436;BME280;15351;52.408;16.826;2023-07-22T04:43:14;100308.53;;;17.27;75.36
26436;BME280;15351;52.408;16.826;2023-07-22T04:45:40;100311.74;;;17.33;75.42
26436;BME280;15351;52.408;16.826;2023-07-22T04:48:07;100312.11;;;17.35;75.37
26436;BME280;15351;52.408;16.826;2023-07-22T04:50:33;100308.80;;;17.37;75.65
26436;BME280;15351;52.408;16.826;2023-07-22T04:52:59;100314.83;;;17.43;75.70
26436;BME280;15351;52.408;16.826;2023-07-22T04:55:26;100315.73;;;17.50;75.97
26436;BME280;15351;52.408;16.826;2023-07-22T04:57:56;100319.81;;;17.56;75.69
26436;BME280;15351;52.408;16.826;2023-07-22T05:00:22;100319.05;;;17.56;75.66
26436;BME280;15351;52.408;16.826;2023-07-22T05:02:49;100318.86;;;17.59;76.03
26436;BME280;15351;52.408;16.826;2023-07-22T05:05:18;100316.69;;;17.57;75.80
26436;BME280;15351;52.408;16.826;2023-07-22T05:07:44;100316.33;;;17.56;75.74
26436;BME280;15351;52.408;16.826;2023-07-22T05:10:11;100316.73;;;17.58;75.93
26436;BME280;15351;52.408;16.826;2023-07-22T05:12:40;100323.13;;;17.60;75.59
26436;BME280;15351;52.408;16.826;2023-07-22T05:15:09;100323.40;;;17.66;75.71
26436;BME280;15351;52.408;16.826;2023-07-22T05:17:36;100329.27;;;17.67;75.37
26436;BME280;15351;52.408;16.826;2023-07-22T05:20:05;100328.39;;;17.68;75.10
26436;BME280;15351;52.408;16.826;2023-07-22T05:22:40;100331.11;;;17.68;75.10
26436;BME280;15351;52.408;16.826;2023-07-22T05:25:07;100332.54;;;17.74;75.29
26436;BME280;15351;52.408;16.826;2023-07-22T05:27:34;100335.58;;;17.82;75.16
26436;BME280;15351;52.408;16.826;2023-07-22T05:30:00;100331.48;;;17.88;74.84
26436;BME280;15351;52.408;16.826;2023-07-22T05:32:30;100325.14;;;17.94;74.86
26436;BME280;15351;52.408;16.826;2023-07-22T05:34:56;100328.42;;;17.98;74.25
26436;BME280;15351;52.408;16.826;2023-07-22T05:37:23;100329.74;;;17.97;74.04
26436;BME280;15351;52.408;16.826;2023-07-22T05:39:49;100335.71;;;17.92;73.84
26436;BME280;15351;52.408;16.826;2023-07-22T05:42:17;100341.02;;;17.89;73.93
26436;BME280;15351;52.408;16.826;2023-07-22T05:44:43;100336.66;;;17.86;74.06
26436;BME280;15351;52.408;16.826;2023-07-22T05:47:10;100341.34;;;17.89;74.08
26436;BME280;15351;52.408;16.826;2023-07-22T05:49:36;100345.73;;;17.95;74.30
26436;BME280;15351;52.408;16.826;2023-07-22T05:52:03;100345.81;;;18.07;74.08
26436;BME280;15351;52.408;16.826;2023-07-22T05:54:29;100354.77;;;18.15;74.14
26436;BME280;15351;52.408;16.826;2023-07-22T05:56:55;100353.52;;;18.23;73.69
26436;BME280;15351;52.408;16.826;2023-07-22T05:59:23;100356.45;;;18.27;73.51
26436;BME280;15351;52.408;16.826;2023-07-22T06:01:50;100348.35;;;18.29;73.21
26436;BME280;15351;52.408;16.826;2023-07-22T06:04:16;100355.92;;;18.34;73.21
26436;BME280;15351;52.408;16.826;2023-07-22T06:06:45;100354.91;;;18.38;72.92
26436;BME280;15351;52.408;16.826;2023-07-22T06:09:11;100356.73;;;18.41;72.61
26436;BME280;15351;52.408;16.826;2023-07-22T06:11:39;100357.97;;;18.47;72.36
26436;BME280;15351;52.408;16.826;2023-07-22T06:14:09;100355.98;;;18.54;71.83
26436;BME280;15351;52.408;16.826;2023-07-22T06:16:35;100358.82;;;18.59;71.70
26436;BME280;15351;52.408;16.826;2023-07-22T06:19:01;100366.63;;;18.65;71.59
26436;BME280;15351;52.408;16.826;2023-07-22T06:21:28;100373.42;;;18.66;71.51
26436;BME280;15351;52.408;16.826;2023-07-22T06:23:54;100377.16;;;18.72;71.44
26436;BME280;15351;52.408;16.826;2023-07-22T06:26:20;100371.98;;;18.82;71.46
26436;BME280;15351;52.408;16.826;2023-07-22T06:28:59;100377.45;;;18.93;71.00
26436;BME280;15351;52.408;16.826;2023-07-22T06:31:29;100376.70;;;18.99;70.74
26436;BME280;15351;52.408;16.826;2023-07-22T06:34:03;100367.55;;;19.10;70.65
26436;BME280;15351;52.408;16.826;2023-07-22T06:36:30;100366.06;;;19.23;70.54
26436;BME280;15351;52.408;16.826;2023-07-22T06:39:02;100366.65;;;19.29;70.07
26436;BME280;15351;52.408;16.826;2023-07-22T06:41:28;100371.73;;;19.41;70.00
26436;BME280;15351;52.408;16.826;2023-07-22T06:43:55;100370.65;;;19.50;69.75
26436;BME280;15351;52.408;16.826;2023-07-22T06:46:24;100375.95;;;19.53;69.30
26436;BME280;15351;52.408;16.826;2023-07-22T06:51:46;100379.66;;;19.56;68.73
26436;BME280;15351;52.408;16.826;2023-07-22T06:54:15;100383.16;;;19.68;68.33
26436;BME280;15351;52.408;16.826;2023-07-22T06:56:43;100384.32;;;19.73;68.17
26436;BME280;15351;52.408;16.826;2023-07-22T06:59:10;100383.66;;;19.75;67.77
26436;BME280;15351;52.408;16.826;2023-07-22T07:01:36;100386.65;;;19.81;67.88
26436;BME280;15351;52.408;16.826;2023-07-22T07:04:09;100383.36;;;19.87;67.45
26436;BME280;15351;52.408;16.826;2023-07-22T07:07:08;100389.17;;;19.91;67.32
26436;BME280;15351;52.408;16.826;2023-07-22T07:10:09;100391.52;;;19.98;67.25
26436;BME280;15351;52.408;16.826;2023-07-22T07:12:44;100393.89;;;20.03;67.01
26436;BME280;15351;52.408;16.826;2023-07-22T07:15:15;100398.45;;;20.11;66.26
26436;BME280;15351;52.408;16.826;2023-07-22T07:18:31;100405.56;;;20.21;65.99
26436;BME280;15351;52.408;16.826;2023-07-22T07:21:43;100401.10;;;20.32;65.37
26436;BME280;15351;52.408;16.826;2023-07-22T07:24:55;100400.80;;;20.33;65.11
26436;BME280;15351;52.408;16.826;2023-07-22T07:27:50;100403.64;;;20.50;64.93
26436;BME280;15351;52.408;16.826;2023-07-22T07:30:40;100407.23;;;20.62;64.39
26436;BME280;15351;52.408;16.826;2023-07-22T07:33:31;100407.83;;;20.65;63.92
26436;BME280;15351;52.408;16.826;2023-07-22T07:36:29;100410.02;;;20.75;63.48
26436;BME280;15351;52.408;16.826;2023-07-22T07:39:27;100414.69;;;20.85;62.72
26436;BME280;15351;52.408;16.826;2023-07-22T07:42:34;100414.50;;;20.75;62.54
26436;BME280;15351;52.408;16.826;2023-07-22T07:45:30;100410.27;;;20.77;62.34
26436;BME280;15351;52.408;16.826;2023-07-22T07:51:30;100413.69;;;21.19;62.37
26436;BME280;15351;52.408;16.826;2023-07-22T07:54:06;100419.94;;;21.33;62.28
26436;BME280;15351;52.408;16.826;2023-07-22T07:56:47;100422.77;;;21.51;61.50
26436;BME280;15351;52.408;16.826;2023-07-22T07:59:37;100426.59;;;21.49;59.70
26436;BME280;15351;52.408;16.826;2023-07-22T08:02:17;100432.23;;;21.48;60.01
26436;BME280;15351;52.408;16.826;2023-07-22T08:05:35;100436.82;;;21.58;59.20
26436;BME280;15351;52.408;16.826;2023-07-22T08:08:37;100438.00;;;21.62;58.76
26436;BME280;15351;52.408;16.826;2023-07-22T08:11:15;100435.23;;;21.77;58.44
26436;BME280;15351;52.408;16.826;2023-07-22T08:14:19;100433.00;;;21.87;58.39
26436;BME280;15351;52.408;16.826;2023-07-22T08:17:01;100440.56;;;22.05;58.77
26436;BME280;15351;52.408;16.826;2023-07-22T08:19:32;100448.71;;;22.18;57.94
26436;BME280;15351;52.408;16.826;2023-07-22T08:22:28;100455.86;;;22.30;57.33
26436;BME280;15351;52.408;16.826;2023-07-22T08:25:11;100458.36;;;22.23;56.48
26436;BME280;15351;52.408;16.826;2023-07-22T08:28:04;100458.27;;;22.24;56.82
26436;BME280;15351;52.408;16.826;2023-07-22T08:30:40;100465.01;;;22.44;56.77
26436;BME280;15351;52.408;16.826;2023-07-22T08:33:22;100464.25;;;22.48;56.00
26436;BME280;15351;52.408;16.826;2023-07-22T08:36:00;100459.69;;;22.45;56.05
26436;BME280;15351;52.408;16.826;2023-07-22T08:38:40;100467.33;;;22.54;55.45
26436;BME280;15351;52.408;16.826;2023-07-22T08:41:17;100468.04;;;22.48;55.02
26436;BME280;15351;52.408;16.826;2023-07-22T08:44:00;100466.41;;;22.36;54.63
26436;BME280;15351;52.408;16.826;2023-07-22T08:46:39;100463.95;;;22.44;54.97
26436;BME280;15351;52.408;16.826;2023-07-22T08:49:26;100477.66;;;22.48;54.29
26436;BME280;15351;52.408;16.826;2023-07-22T08:52:10;100479.23;;;22.22;53.96
26436;BME280;15351;52.408;16.826;2023-07-22T08:54:54;100482.73;;;22.21;55.10
26436;BME280;15351;52.408;16.826;2023-07-22T08:57:34;100487.95;;;22.57;55.85
26436;BME280;15351;52.408;16.826;2023-07-22T09:00:09;100482.16;;;22.78;54.15
26436;BME280;15351;52.408;16.826;2023-07-22T09:02:52;100484.49;;;22.86;52.43
26436;BME280;15351;52.408;16.826;2023-07-22T09:05:26;100485.08;;;22.78;51.82
26436;BME280;15351;52.408;16.826;2023-07-22T09:08:05;100487.57;;;22.76;51.62
26436;BME280;15351;52.408;16.826;2023-07-22T09:10:54;100480.94;;;22.77;51.26
26436;BME280;15351;52.408;16.826;2023-07-22T09:13:37;100480.05;;;22.87;50.76
26436;BME280;15351;52.408;16.826;2023-07-22T09:16:35;100477.45;;;22.97;50.97
26436;BME280;15351;52.408;16.826;2023-07-22T09:19:42;100477.39;;;23.08;50.58
26436;BME280;15351;52.408;16.826;2023-07-22T09:22:47;100482.19;;;23.01;49.79
26436;BME280;15351;52.408;16.826;2023-07-22T09:25:27;100484.25;;;23.21;50.35
26436;BME280;15351;52.408;16.826;2023-07-22T09:28:20;100485.93;;;23.27;49.70
26436;BME280;15351;52.408;16.826;2023-07-22T09:31:15;100484.53;;;23.22;49.38
26436;BME280;15351;52.408;16.826;2023-07-22T09:33:51;100492.05;;;23.38;48.30
26436;BME280;15351;52.408;16.826;2023-07-22T09:37:11;100484.50;;;23.58;48.17
26436;BME280;15351;52.408;16.826;2023-07-22T09:39:53;100487.98;;;23.81;47.34
26436;BME280;15351;52.408;16.826;2023-07-22T09:42:33;100485.33;;;23.75;46.40
26436;BME280;15351;52.408;16.826;2023-07-22T09:45:25;100496.90;;;23.50;46.64
26436;BME280;15351;52.408;16.826;2023-07-22T09:48:00;100492.67;;;23.47;47.27
26436;BME280;15351;52.408;16.826;2023-07-22T09:50:55;100487.19;;;23.75;47.87
26436;BME280;15351;52.408;16.826;2023-07-22T09:53:36;100479.77;;;24.04;46.13
26436;BME280;15351;52.408;16.826;2023-07-22T10:00:06;100496.41;;;23.91;44.77
26436;BME280;15351;52.408;16.826;2023-07-22T10:02:40;100495.70;;;23.96;45.67
26436;BME280;15351;52.408;16.826;2023-07-22T10:05:42;100495.56;;;24.15;45.36
26436;BME280;15351;52.408;16.826;2023-07-22T10:08:18;100486.70;;;24.44;45.88
26436;BME280;15351;52.408;16.826;2023-07-22T10:11:22;100491.45;;;24.75;44.75
26436;BME280;15351;52.408;16.826;2023-07-22T10:13:51;100490.70;;;24.86;43.24
26436;BME280;15351;52.408;16.826;2023-07-22T10:16:38;100492.91;;;24.85;43.19
26436;BME280;15351;52.408;16.826;2023-07-22T10:19:32;100496.41;;;24.80;42.85
26436;BME280;15351;52.408;16.826;2023-07-22T10:22:11;100498.63;;;24.73;42.16
26436;BME280;15351;52.408;16.826;2023-07-22T10:25:00;100504.27;;;24.75;42.36
26436;BME280;15351;52.408;16.826;2023-07-22T10:27:47;100506.89;;;24.71;41.86
26436;BME280;15351;52.408;16.826;2023-07-22T10:30:57;100508.44;;;24.56;41.60
26436;BME280;15351;52.408;16.826;2023-07-22T10:33:57;100507.94;;;24.27;41.44
26436;BME280;15351;52.408;16.826;2023-07-22T10:36:47;100506.98;;;24.21;41.71
26436;BME280;15351;52.408;16.826;2023-07-22T10:39:43;100512.27;;;24.29;42.10
26436;BME280;15351;52.408;16.826;2023-07-22T10:42:26;100509.15;;;24.56;42.11
26436;BME280;15351;52.408;16.826;2023-07-22T10:45:02;100510.23;;;24.65;40.89
26436;BME280;15351;52.408;16.826;2023-07-22T10:51:22;100498.54;;;25.06;40.19
26436;BME280;15351;52.408;16.826;2023-07-22T10:54:40;100499.95;;;25.34;40.16
26436;BME280;15351;52.408;16.826;2023-07-22T10:57:32;100501.13;;;25.54;39.50
26436;BME280;15351;52.408;16.826;2023-07-22T11:00:26;100498.73;;;25.75;39.54
26436;BME280;15351;52.408;16.826;2023-07-22T11:03:12;100498.41;;;26.06;39.50
26436;BME280;15351;52.408;16.826;2023-07-22T11:05:47;100495.20;;;26.28;38.43
26436;BME280;15351;52.408;16.826;2023-07-22T11:11:59;100505.45;;;25.80;37.00
26436;BME280;15351;52.408;16.826;2023-07-22T11:14:35;100507.45;;;25.69;37.70
26436;BME280;15351;52.408;16.826;2023-07-22T11:17:03;100499.96;;;25.81;37.92
26436;BME280;15351;52.408;16.826;2023-07-22T11:19:31;100503.71;;;25.79;37.52
26436;BME280;15351;52.408;16.826;2023-07-22T11:21:57;100503.59;;;25.73;37.90
26436;BME280;15351;52.408;16.826;2023-07-22T11:24:26;100505.70;;;25.77;37.38
26436;BME280;15351;52.408;16.826;2023-07-22T11:26:54;100510.66;;;25.59;37.02
26436;BME280;15351;52.408;16.826;2023-07-22T11:29:21;100514.98;;;25.41;36.97
26436;BME280;15351;52.408;16.826;2023-07-22T11:31:50;100513.48;;;25.25;37.04
26436;BME280;15351;52.408;16.826;2023-07-22T11:34:19;100513.15;;;25.09;37.10
26436;BME280;15351;52.408;16.826;2023-07-22T11:36:48;100514.73;;;25.14;37.72
26436;BME280;15351;52.408;16.826;2023-07-22T11:39:16;100509.71;;;25.25;37.86
26436;BME280;15351;52.408;16.826;2023-07-22T11:41:44;100507.71;;;25.45;38.39
26436;BME280;15351;52.408;16.826;2023-07-22T11:44:13;100509.27;;;25.60;37.76
26436;BME280;15351;52.408;16.826;2023-07-22T11:46:58;100505.51;;;25.57;37.80
26436;BME280;15351;52.408;16.826;2023-07-22T11:49:39;100499.57;;;25.43;37.60
26436;BME280;15351;52.408;16.826;2023-07-22T11:52:10;100490.54;;;25.41;38.17
26436;BME280;15351;52.408;16.826;2023-07-22T11:54:39;100498.91;;;25.52;37.69
26436;BME280;15351;52.408;16.826;2023-07-22T11:57:10;100495.63;;;25.48;37.09
26436;BME280;15351;52.408;16.826;2023-07-22T11:59:40;100494.26;;;25.42;37.10
26436;BME280;15351;52.408;16.826;2023-07-22T12:02:13;100499.42;;;25.48;37.29
26436;BME280;15351;52.408;16.826;2023-07-22T12:04:40;100500.70;;;25.56;37.21
26436;BME280;15351;52.408;16.826;2023-07-22T12:07:24;100494.58;;;25.63;37.22
26436;BME280;15351;52.408;16.826;2023-07-22T12:09:51;100494.85;;;25.73;37.06
26436;BME280;15351;52.408;16.826;2023-07-22T12:12:18;100497.75;;;25.66;36.76
26436;BME280;15351;52.408;16.826;2023-07-22T12:14:44;100501.21;;;25.50;36.57
26436;BME280;15351;52.408;16.826;2023-07-22T12:17:11;100500.98;;;25.24;36.57
26436;BME280;15351;52.408;16.826;2023-07-22T12:19:37;100504.20;;;25.07;37.32
26436;BME280;15351;52.408;16.826;2023-07-22T12:22:03;100496.61;;;25.15;37.38
26436;BME280;15351;52.408;16.826;2023-07-22T12:24:30;100496.76;;;25.29;37.22
26436;BME280;15351;52.408;16.826;2023-07-22T12:26:56;100495.97;;;25.40;37.20
26436;BME280;15351;52.408;16.826;2023-07-22T12:29:22;100491.68;;;25.57;37.24
26436;BME280;15351;52.408;16.826;2023-07-22T12:31:49;100490.54;;;25.75;37.02
26436;BME280;15351;52.408;16.826;2023-07-22T12:34:15;100495.14;;;25.79;36.56
26436;BME280;15351;52.408;16.826;2023-07-22T12:36:43;100496.82;;;25.70;36.30
26436;BME280;15351;52.408;16.826;2023-07-22T12:39:09;100503.96;;;25.48;36.21
26436;BME280;15351;52.408;16.826;2023-07-22T12:41:36;100501.13;;;25.30;36.36
26436;BME280;15351;52.408;16.826;2023-07-22T12:44:03;100490.10;;;25.25;36.46
26436;BME280;15351;52.408;16.826;2023-07-22T12:46:29;100496.35;;;25.34;36.63
26436;BME280;15351;52.408;16.826;2023-07-22T12:48:55;100494.42;;;25.41;36.50
26436;BME280;15351;52.408;16.826;2023-07-22T12:51:24;100494.16;;;25.45;36.58
26436;BME280;15351;52.408;16.826;2023-07-22T12:53:50;100501.90;;;25.47;36.15
26436;BME280;15351;52.408;16.826;2023-07-22T12:56:22;100502.80;;;25.49;36.37
26436;BME280;15351;52.408;16.826;2023-07-22T12:58:48;100498.10;;;25.60;36.44
26436;BME280;15351;52.408;16.826;2023-07-22T13:01:14;100489.76;;;25.72;36.37
26436;BME280;15351;52.408;16.826;2023-07-22T13:03:41;100494.34;;;25.70;35.71
26436;BME280;15351;52.408;16.826;2023-07-22T13:06:07;100499.60;;;25.49;35.72
26436;BME280;15351;52.408;16.826;2023-07-22T13:08:33;100496.64;;;25.41;35.74
26436;BME280;15351;52.408;16.826;2023-07-22T13:10:59;100494.31;;;25.44;35.83
26436;BME280;15351;52.408;16.826;2023-07-22T13:13:26;100493.15;;;25.54;35.86
26436;BME280;15351;52.408;16.826;2023-07-22T13:15:52;100501.91;;;25.56;35.37
26436;BME280;15351;52.408;16.826;2023-07-22T13:18:19;100494.36;;;25.51;35.42
26436;BME280;15351;52.408;16.826;2023-07-22T13:20:45;100499.13;;;25.43;35.02
26436;BME280;15351;52.408;16.826;2023-07-22T13:23:11;100502.05;;;25.27;34.91
26436;BME280;15351;52.408;16.826;2023-07-22T13:25:38;100504.38;;;25.11;34.99
26436;BME280;15351;52.408;16.826;2023-07-22T13:28:07;100505.56;;;24.91;35.10
26436;BME280;15351;52.408;16.826;2023-07-22T13:30:33;100502.02;;;24.88;35.33